createdAt,value
2019-02-28T00:02:11.337Z,5.70
2019-02-28T00:04:41.610Z,5.70
2019-02-28T00:07:11.905Z,5.70
2019-02-28T00:09:42.155Z,5.70
2019-02-28T00:12:13.534Z,5.70
2019-02-28T00:14:45.600Z,5.80
2019-02-28T00:17:35.047Z,6.10
2019-02-28T00:20:05.624Z,6.30
2019-02-28T00:22:35.807Z,6.40
2019-02-28T00:25:06.250Z,6.30
2019-02-28T00:27:36.528Z,6.40
2019-02-28T00:30:07.215Z,6.30
2019-02-28T00:32:37.506Z,6.30
2019-02-28T00:35:12.972Z,6.30
2019-02-28T00:37:39.937Z,6.10
2019-02-28T00:40:10.604Z,5.90
2019-02-28T00:42:41.242Z,5.80
2019-02-28T00:45:11.936Z,5.70
2019-02-28T00:47:42.163Z,5.70
2019-02-28T00:50:12.536Z,5.60
2019-02-28T00:52:42.668Z,5.50
2019-02-28T00:55:15.226Z,5.50
2019-02-28T00:57:45.854Z,5.50
2019-02-28T01:00:16.804Z,5.60
2019-02-28T01:02:51.886Z,5.70
2019-02-28T01:05:19.229Z,5.60
2019-02-28T01:07:49.798Z,5.50
2019-02-28T01:10:20.048Z,5.50
2019-02-28T01:12:53.463Z,5.40
2019-02-28T01:15:22.267Z,5.40
2019-02-28T01:17:52.486Z,5.30
2019-02-28T01:20:22.673Z,5.30
2019-02-28T01:22:52.932Z,5.40
2019-02-28T01:25:23.176Z,5.60
2019-02-28T01:27:53.394Z,5.70
2019-02-28T01:30:23.904Z,5.80
2019-02-28T01:32:54.163Z,5.80
2019-02-28T01:35:24.351Z,5.70
2019-02-28T01:37:54.573Z,5.60
2019-02-28T01:40:25.238Z,5.50
2019-02-28T01:42:55.473Z,5.50
2019-02-28T01:45:26.031Z,5.50
2019-02-28T01:47:56.351Z,5.50
2019-02-28T01:50:29.624Z,5.50
2019-02-28T01:52:58.483Z,5.60
2019-02-28T01:55:29.394Z,5.70
2019-02-28T01:58:00.434Z,5.60
2019-02-28T02:00:30.611Z,5.50
2019-02-28T02:03:00.930Z,5.40
2019-02-28T02:05:31.115Z,5.50
2019-02-28T02:08:06.556Z,5.40
2019-02-28T02:10:33.264Z,5.40
2019-02-28T02:13:04.320Z,5.50
2019-02-28T02:15:34.688Z,5.50
2019-02-28T02:18:06.386Z,5.50
2019-02-28T02:20:38.200Z,5.40
2019-02-28T02:23:08.783Z,5.30
2019-02-28T02:25:39.059Z,5.20
2019-02-28T02:28:09.270Z,5.20
2019-02-28T02:30:39.465Z,5.10
2019-02-28T02:33:13.578Z,5.00
2019-02-28T02:35:42.607Z,5.00
2019-02-28T02:38:13.384Z,5.00
2019-02-28T02:40:43.597Z,4.90
2019-02-28T02:43:14.099Z,5.00
2019-02-28T02:45:44.302Z,4.90
2019-02-28T02:48:15.250Z,4.80
2019-02-28T02:50:45.540Z,4.90
2019-02-28T02:53:15.746Z,4.90
2019-02-28T02:55:45.851Z,4.80
2019-02-28T02:58:16.081Z,4.70
2019-02-28T03:00:51.123Z,4.70
2019-02-28T03:03:18.189Z,4.70
2019-02-28T03:05:48.681Z,4.80
2019-02-28T03:08:18.985Z,4.80
2019-02-28T03:10:51.896Z,4.80
2019-02-28T03:13:21.020Z,4.70
2019-02-28T03:15:51.730Z,4.70
2019-02-28T03:18:21.950Z,4.90
2019-02-28T03:20:52.166Z,5.00
2019-02-28T03:23:22.388Z,4.90
2019-02-28T03:25:52.592Z,4.90
2019-02-28T03:28:22.817Z,4.80
2019-02-28T03:30:53.010Z,4.80
2019-02-28T03:33:27.471Z,4.80
2019-02-28T03:35:55.151Z,4.70
2019-02-28T03:38:25.442Z,4.70
2019-02-28T03:40:55.812Z,4.60
2019-02-28T03:43:26.137Z,4.60
2019-02-28T03:45:56.396Z,4.60
2019-02-28T03:48:26.997Z,4.70
2019-02-28T03:50:57.239Z,4.60
2019-02-28T03:53:27.518Z,4.50
2019-02-28T03:55:57.652Z,4.40
2019-02-28T03:58:27.899Z,4.50
2019-02-28T04:00:58.502Z,4.60
2019-02-28T04:03:33.486Z,4.50
2019-02-28T04:06:03.641Z,4.70
2019-02-28T04:08:32.857Z,4.80
2019-02-28T04:11:03.082Z,5.00
2019-02-28T04:13:33.372Z,5.00
2019-02-28T04:16:09.209Z,4.80
2019-02-28T04:18:35.821Z,4.80
2019-02-28T04:21:10.419Z,4.80
2019-02-28T04:23:38.012Z,4.90
2019-02-28T04:26:08.202Z,4.90
2019-02-28T04:28:39.562Z,4.90
2019-02-28T04:31:10.174Z,5.00
2019-02-28T04:33:40.386Z,5.10
2019-02-28T04:36:10.552Z,5.20
2019-02-28T04:38:40.763Z,5.20
2019-02-28T04:41:12.025Z,5.20
2019-02-28T04:43:44.355Z,5.10
2019-02-28T04:46:14.444Z,5.00
2019-02-28T04:48:45.686Z,5.10
2019-02-28T04:51:16.876Z,5.20
2019-02-28T04:53:47.088Z,5.20
2019-02-28T04:56:17.700Z,5.30
2019-02-28T04:58:47.902Z,5.20
2019-02-28T05:01:18.105Z,5.20
2019-02-28T05:03:49.452Z,5.30
2019-02-28T05:06:21.184Z,5.30
2019-02-28T05:08:51.894Z,5.30
2019-02-28T05:11:22.404Z,5.40
2019-02-28T05:13:52.632Z,5.40
2019-02-28T05:16:22.776Z,5.50
2019-02-28T05:18:54.105Z,5.50
2019-02-28T05:21:24.335Z,5.40
2019-02-28T05:23:54.492Z,5.30
2019-02-28T05:26:26.315Z,5.30
2019-02-28T05:28:56.868Z,5.20
2019-02-28T05:31:27.951Z,5.20
2019-02-28T05:33:58.358Z,5.30
2019-02-28T05:36:28.616Z,5.30
2019-02-28T05:38:58.851Z,5.20
2019-02-28T05:41:29.113Z,5.00
2019-02-28T05:43:59.311Z,4.90
2019-02-28T05:46:29.513Z,4.80
2019-02-28T05:48:59.770Z,4.70
2019-02-28T05:51:29.874Z,4.70
2019-02-28T05:54:00.448Z,4.80
2019-02-28T05:56:33.133Z,4.80
2019-02-28T05:59:02.838Z,4.80
2019-02-28T06:01:33.009Z,4.80
2019-02-28T06:04:04.048Z,4.80
2019-02-28T06:06:34.377Z,5.00
2019-02-28T06:09:05.713Z,5.20
2019-02-28T06:11:35.921Z,5.20
2019-02-28T06:14:06.114Z,5.30
2019-02-28T06:16:36.370Z,5.40
2019-02-28T06:19:08.239Z,5.50
2019-02-28T06:21:39.323Z,5.60
2019-02-28T06:24:12.737Z,5.60
2019-02-28T06:26:41.477Z,5.70
2019-02-28T06:29:11.719Z,5.80
2019-02-28T06:31:41.903Z,5.80
2019-02-28T06:34:12.157Z,5.80
2019-02-28T06:36:42.352Z,5.80
2019-02-28T06:39:12.942Z,5.80
2019-02-28T06:41:43.204Z,5.90
2019-02-28T06:44:14.888Z,5.90
2019-02-28T06:46:45.082Z,5.90
2019-02-28T06:49:15.308Z,5.90
2019-02-28T06:51:48.351Z,5.80
2019-02-28T06:54:17.443Z,5.80
2019-02-28T06:56:47.647Z,5.70
2019-02-28T06:59:18.180Z,5.80
2019-02-28T07:01:48.420Z,5.90
2019-02-28T07:04:18.998Z,5.90
2019-02-28T07:06:49.183Z,5.90
2019-02-28T07:09:19.696Z,6.00
2019-02-28T07:11:51.287Z,6.00
2019-02-28T07:14:22.168Z,6.10
2019-02-28T07:16:52.412Z,6.10
2019-02-28T07:19:26.168Z,6.10
2019-02-28T07:21:54.776Z,6.20
2019-02-28T07:24:24.992Z,6.30
2019-02-28T07:26:55.188Z,6.30
2019-02-28T07:29:25.352Z,6.50
2019-02-28T07:32:00.016Z,6.50
2019-02-28T07:34:28.054Z,6.50
2019-02-28T07:37:05.663Z,6.50
2019-02-28T07:39:36.587Z,6.60
2019-02-28T07:42:09.308Z,6.70
2019-02-28T07:44:40.009Z,6.70
2019-02-28T07:50:02.625Z,6.90
2019-02-28T07:52:33.787Z,7.00
2019-02-28T07:55:04.943Z,7.10
2019-02-28T07:57:36.714Z,7.20
2019-02-28T08:00:16.820Z,7.40
2019-02-28T08:02:42.481Z,7.50
2019-02-28T08:05:13.663Z,7.70
2019-02-28T08:07:50.284Z,7.80
2019-02-28T08:10:17.930Z,7.90
2019-02-28T08:12:48.115Z,8.10
2019-02-28T08:15:22.424Z,8.20
2019-02-28T08:17:52.419Z,8.20
2019-02-28T08:20:22.687Z,8.30
2019-02-28T08:22:56.756Z,8.40
2019-02-28T08:25:25.170Z,8.40
2019-02-28T08:27:59.371Z,8.50
2019-02-28T08:30:27.359Z,8.50
2019-02-28T08:32:57.858Z,8.50
2019-02-28T08:35:33.979Z,8.50
2019-02-28T08:37:59.931Z,8.50
2019-02-28T08:40:30.205Z,8.50
2019-02-28T08:43:00.768Z,8.50
2019-02-28T08:45:33.204Z,8.40
2019-02-28T08:48:02.955Z,8.40
2019-02-28T08:50:33.169Z,8.30
2019-02-28T08:53:03.628Z,8.30
2019-02-28T08:55:34.680Z,8.20
2019-02-28T08:58:06.700Z,8.30
2019-02-28T09:00:37.796Z,8.40
2019-02-28T09:03:08.815Z,8.50
2019-02-28T09:05:40.072Z,8.70
2019-02-28T09:08:10.260Z,8.90
2019-02-28T09:10:40.496Z,9.10
2019-02-28T09:13:11.014Z,9.30
2019-02-28T09:15:41.460Z,9.40
2019-02-28T09:18:11.652Z,9.60
2019-02-28T09:20:45.119Z,9.70
2019-02-28T09:23:15.545Z,9.80
2019-02-28T09:25:46.872Z,9.90
2019-02-28T09:28:17.091Z,9.90
2019-02-28T09:30:47.800Z,9.90
2019-02-28T09:33:19.354Z,9.80
2019-02-28T09:35:50.716Z,9.70
2019-02-28T09:38:20.924Z,9.80
2019-02-28T09:40:51.149Z,9.60
2019-02-28T09:43:23.924Z,9.60
2019-02-28T09:45:53.559Z,9.40
2019-02-28T09:48:23.762Z,9.40
2019-02-28T09:50:57.767Z,9.40
2019-02-28T09:53:26.621Z,9.30
2019-02-28T09:55:56.994Z,9.30
2019-02-28T09:58:29.320Z,9.30
2019-02-28T10:00:59.017Z,9.30
2019-02-28T10:03:29.629Z,9.40
2019-02-28T10:06:00.145Z,9.40
2019-02-28T10:08:30.303Z,9.50
2019-02-28T10:11:00.577Z,9.50
2019-02-28T10:13:31.122Z,9.60
2019-02-28T10:16:01.531Z,9.80
2019-02-28T10:18:31.890Z,9.90
2019-02-28T10:21:02.718Z,10.00
2019-02-28T10:23:33.099Z,10.30
2019-02-28T10:26:03.618Z,10.70
2019-02-28T10:28:34.113Z,11.10
2019-02-28T10:31:04.441Z,11.30
2019-02-28T10:33:34.633Z,11.50
2019-02-28T10:36:04.882Z,11.80
2019-02-28T10:38:35.180Z,11.80
2019-02-28T10:41:06.017Z,11.80
2019-02-28T10:43:36.165Z,11.70
2019-02-28T10:46:06.785Z,11.60
2019-02-28T10:48:41.729Z,11.70
2019-02-28T10:51:13.890Z,11.70
2019-02-28T10:53:40.911Z,12.00
2019-02-28T10:56:11.234Z,12.30
2019-02-28T10:58:41.571Z,12.80
2019-02-28T11:01:13.247Z,13.20
2019-02-28T11:03:43.511Z,14.00
2019-02-28T11:06:14.041Z,14.50
2019-02-28T11:08:47.535Z,14.70
2019-02-28T11:11:18.007Z,14.80
2019-02-28T11:13:48.231Z,15.40
2019-02-28T11:16:20.434Z,15.40
2019-02-28T11:18:50.454Z,14.90
2019-02-28T11:21:21.417Z,14.40
2019-02-28T11:23:51.878Z,14.10
2019-02-28T11:26:22.102Z,13.70
2019-02-28T11:28:52.291Z,13.60
2019-02-28T11:31:22.534Z,13.40
2019-02-28T11:33:53.116Z,13.30
2019-02-28T11:36:24.498Z,13.30
2019-02-28T11:38:55.432Z,13.40
2019-02-28T11:41:26.541Z,13.50
2019-02-28T11:43:57.165Z,13.70
2019-02-28T11:46:27.372Z,13.70
2019-02-28T11:48:57.586Z,13.60
2019-02-28T11:51:27.816Z,13.90
2019-02-28T11:53:58.024Z,14.00
2019-02-28T11:56:29.447Z,13.90
2019-02-28T11:59:01.268Z,14.00
2019-02-28T12:01:31.580Z,13.90
2019-02-28T12:04:01.760Z,13.90
2019-02-28T12:06:33.059Z,13.90
2019-02-28T12:09:05.164Z,13.80
2019-02-28T12:11:36.553Z,13.80
2019-02-28T12:14:08.113Z,13.80
2019-02-28T12:16:38.421Z,13.80
2019-02-28T12:19:08.607Z,14.00
2019-02-28T12:21:38.905Z,14.00
2019-02-28T12:24:09.235Z,14.00
2019-02-28T12:26:39.812Z,13.70
2019-02-28T12:29:12.891Z,13.50
2019-02-28T12:31:41.987Z,13.30
2019-02-28T12:34:12.132Z,13.10
2019-02-28T12:36:42.701Z,13.00
2019-02-28T12:39:12.901Z,13.00
2019-02-28T12:41:43.405Z,13.00
2019-02-28T12:44:15.380Z,13.00
2019-02-28T12:46:46.037Z,13.10
2019-02-28T12:49:21.822Z,13.20
2019-02-28T12:51:48.424Z,13.50
2019-02-28T12:54:19.310Z,13.80
2019-02-28T12:56:49.609Z,14.20
2019-02-28T12:59:20.255Z,14.50
2019-02-28T13:01:50.488Z,15.00
2019-02-28T13:04:20.594Z,15.10
2019-02-28T13:06:51.221Z,15.00
2019-02-28T13:09:21.870Z,14.70
2019-02-28T13:11:52.425Z,14.40
2019-02-28T13:14:22.613Z,14.30
2019-02-28T13:16:54.591Z,14.00
2019-02-28T13:19:25.455Z,13.80
2019-02-28T13:21:55.680Z,13.70
2019-02-28T13:24:26.075Z,13.50
2019-02-28T13:26:56.373Z,13.40
2019-02-28T13:29:28.769Z,13.30
2019-02-28T13:32:01.411Z,13.10
2019-02-28T13:34:30.561Z,13.00
2019-02-28T13:37:03.187Z,12.70
2019-02-28T13:39:33.135Z,12.60
2019-02-28T13:42:04.326Z,12.50
2019-02-28T13:44:36.450Z,12.50
2019-02-28T13:47:09.902Z,12.40
2019-02-28T13:49:38.626Z,12.30
2019-02-28T13:52:10.367Z,12.30
2019-02-28T13:54:42.448Z,12.40
2019-02-28T13:57:12.827Z,12.40
2019-02-28T13:59:43.017Z,12.50
2019-02-28T14:02:13.727Z,12.50
2019-02-28T14:04:44.055Z,12.50
2019-02-28T14:07:14.279Z,12.40
2019-02-28T14:09:44.466Z,12.40
2019-02-28T14:12:16.951Z,12.40
2019-02-28T14:14:46.987Z,12.20
2019-02-28T14:17:17.627Z,12.00
2019-02-28T14:19:47.875Z,11.90
2019-02-28T14:22:18.167Z,11.90
2019-02-28T14:24:48.410Z,11.90
2019-02-28T14:27:21.588Z,12.00
2019-02-28T14:29:50.636Z,12.10
2019-02-28T14:32:20.812Z,12.20
2019-02-28T14:34:51.034Z,12.30
2019-02-28T14:37:21.328Z,12.60
2019-02-28T14:39:51.875Z,13.00
2019-02-28T14:42:22.630Z,13.20
2019-02-28T14:44:52.800Z,13.10
2019-02-28T14:47:24.880Z,13.00
2019-02-28T14:49:55.229Z,12.80
2019-02-28T14:52:25.792Z,12.70
2019-02-28T14:54:57.075Z,12.50
2019-02-28T14:57:28.474Z,12.40
2019-02-28T15:00:00.107Z,12.30
2019-02-28T15:02:30.488Z,12.30
2019-02-28T15:05:00.682Z,12.20
2019-02-28T15:07:35.271Z,12.30
2019-02-28T15:10:05.568Z,12.30
2019-02-28T15:12:35.770Z,12.40
2019-02-28T15:15:08.260Z,12.50
2019-02-28T15:17:39.647Z,12.60
2019-02-28T15:20:13.377Z,12.60
2019-02-28T15:22:43.029Z,12.60
2019-02-28T15:25:15.342Z,12.50
2019-02-28T15:27:46.467Z,12.60
2019-02-28T15:30:22.073Z,12.50
2019-02-28T15:32:54.233Z,12.50
2019-02-28T15:35:24.291Z,12.50
2019-02-28T15:37:54.880Z,12.50
2019-02-28T15:40:27.406Z,12.50
2019-02-28T15:42:57.638Z,12.50
2019-02-28T15:45:27.861Z,12.60
2019-02-28T15:48:00.243Z,12.60
2019-02-28T15:50:30.405Z,12.50
2019-02-28T15:53:01.328Z,12.40
2019-02-28T15:55:35.153Z,12.30
2019-02-28T15:58:05.905Z,12.30
2019-02-28T16:00:37.240Z,12.30
2019-02-28T16:03:07.474Z,12.20
2019-02-28T16:05:42.713Z,12.20
2019-02-28T16:08:10.842Z,12.10
2019-02-28T16:10:52.610Z,11.90
2019-02-28T16:13:14.309Z,11.60
2019-02-28T16:15:46.279Z,11.30
2019-02-28T16:18:16.440Z,11.10
2019-02-28T16:20:46.727Z,11.00
2019-02-28T16:23:16.981Z,10.80
2019-02-28T16:25:50.071Z,10.70
2019-02-28T16:28:19.899Z,10.60
2019-02-28T16:30:50.317Z,10.50
2019-02-28T16:33:24.751Z,10.40
2019-02-28T16:35:53.273Z,10.40
2019-02-28T16:38:23.879Z,10.40
2019-02-28T16:40:54.106Z,10.30
2019-02-28T16:43:24.316Z,10.30
2019-02-28T16:45:54.652Z,10.30
2019-02-28T16:48:24.890Z,10.30
2019-02-28T16:50:56.934Z,10.30
2019-02-28T16:53:27.036Z,10.30
2019-02-28T16:55:59.167Z,10.30
2019-02-28T16:58:29.243Z,10.30
2019-02-28T17:00:59.437Z,10.30
2019-02-28T17:03:29.716Z,10.30
2019-02-28T17:06:01.724Z,10.30
2019-02-28T17:08:36.074Z,10.30
2019-02-28T17:11:06.360Z,10.30
2019-02-28T17:13:47.816Z,10.30
2019-02-28T17:16:25.122Z,10.30
2019-02-28T17:18:56.878Z,10.20
2019-02-28T17:21:27.635Z,10.20
2019-02-28T17:23:57.924Z,10.20
2019-02-28T17:27:05.735Z,10.20
2019-02-28T17:29:44.725Z,10.20
2019-02-28T17:32:15.239Z,10.20
2019-02-28T17:34:45.466Z,10.10
2019-02-28T17:37:15.670Z,10.20
2019-02-28T17:39:47.446Z,10.20
2019-02-28T17:42:18.707Z,10.20
2019-02-28T17:45:17.208Z,10.20
2019-02-28T17:48:24.998Z,10.20
2019-02-28T17:51:23.392Z,10.20
2019-02-28T17:54:20.798Z,10.30
2019-02-28T17:57:27.656Z,10.30
2019-02-28T18:00:52.910Z,10.30
2019-02-28T18:03:44.962Z,10.20
2019-02-28T18:07:04.096Z,10.20
2019-02-28T18:10:07.147Z,10.20
2019-02-28T18:12:56.500Z,10.20
2019-02-28T18:15:50.091Z,10.20
2019-02-28T18:18:59.334Z,10.20
2019-02-28T18:22:00.969Z,10.20
2019-02-28T18:24:44.636Z,10.20
2019-02-28T18:27:29.693Z,10.20
2019-02-28T18:30:47.128Z,10.20
2019-02-28T18:33:19.458Z,10.20
2019-02-28T18:35:49.894Z,10.10
2019-02-28T18:38:20.143Z,10.10
2019-02-28T18:40:50.427Z,10.10
2019-02-28T18:43:20.703Z,10.10
2019-02-28T18:45:53.616Z,10.10
2019-02-28T18:48:22.885Z,10.20
2019-02-28T18:50:53.102Z,10.20
2019-02-28T18:53:23.474Z,10.20
2019-02-28T18:55:54.109Z,10.20
2019-02-28T18:58:24.432Z,10.30
2019-02-28T19:00:54.641Z,10.20
2019-02-28T19:03:24.883Z,10.20
2019-02-28T19:05:55.879Z,10.20
2019-02-28T19:08:26.160Z,10.20
2019-02-28T19:10:56.439Z,10.20
2019-02-28T19:13:26.693Z,10.10
2019-02-28T19:15:57.037Z,10.10
2019-02-28T19:18:27.342Z,10.10
2019-02-28T19:20:57.678Z,10.00
2019-02-28T19:23:27.875Z,10.00
2019-02-28T19:25:58.385Z,10.00
2019-02-28T19:28:31.434Z,10.00
2019-02-28T19:31:01.721Z,10.00
2019-02-28T19:33:32.339Z,10.00
2019-02-28T19:36:02.793Z,10.00
2019-02-28T19:38:32.984Z,10.00
2019-02-28T19:41:03.360Z,10.00
2019-02-28T19:43:33.518Z,10.00
2019-02-28T19:46:04.081Z,10.00
2019-02-28T19:48:37.090Z,10.10
2019-02-28T19:51:07.393Z,10.00
2019-02-28T19:53:37.617Z,10.00
2019-02-28T19:56:07.905Z,10.00
2019-02-28T19:58:38.052Z,10.10
2019-02-28T20:01:08.726Z,10.10
2019-02-28T20:03:39.276Z,10.10
2019-02-28T20:06:09.480Z,10.20
2019-02-28T20:08:40.371Z,10.20
2019-02-28T20:11:10.533Z,10.20
2019-02-28T20:13:41.183Z,10.20
2019-02-28T20:16:11.523Z,10.10
2019-02-28T20:18:42.130Z,10.10
2019-02-28T20:21:12.893Z,10.10
2019-02-28T20:23:43.195Z,10.10
2019-02-28T20:26:13.518Z,10.10
2019-02-28T20:28:43.801Z,10.10
2019-02-28T20:31:14.018Z,10.10
2019-02-28T20:33:44.336Z,10.10
2019-02-28T20:36:15.052Z,10.00
2019-02-28T20:38:45.322Z,9.90
2019-02-28T20:41:15.514Z,9.90
2019-02-28T20:43:46.190Z,9.80
2019-02-28T20:46:16.450Z,9.80
2019-02-28T20:48:46.686Z,9.70
2019-02-28T20:51:16.969Z,9.70
2019-02-28T20:53:47.173Z,9.70
2019-02-28T20:56:17.465Z,9.70
2019-02-28T20:58:47.725Z,9.60
2019-02-28T21:01:18.004Z,9.60
2019-02-28T21:03:48.343Z,9.60
2019-02-28T21:06:18.645Z,9.60
2019-02-28T21:08:48.825Z,9.60
2019-02-28T21:11:19.109Z,9.60
2019-02-28T21:13:49.371Z,9.60
2019-02-28T21:16:20.008Z,9.60
2019-02-28T21:18:50.801Z,9.60
2019-02-28T21:21:21.048Z,9.70
2019-02-28T21:23:51.375Z,9.70
2019-02-28T21:26:21.613Z,9.70
2019-02-28T21:28:53.647Z,9.70
2019-02-28T21:31:23.795Z,9.70
2019-02-28T21:33:54.083Z,9.80
2019-02-28T21:36:24.727Z,9.80
2019-02-28T21:38:55.038Z,9.80
2019-02-28T21:41:25.331Z,9.80
2019-02-28T21:43:56.477Z,9.80
2019-02-28T21:46:26.739Z,9.80
2019-02-28T21:48:57.291Z,9.80
2019-02-28T21:51:27.605Z,9.90
2019-02-28T21:53:58.691Z,9.90
2019-02-28T21:56:28.963Z,9.80
2019-02-28T21:59:00.269Z,9.80
2019-02-28T22:01:30.839Z,9.80
2019-02-28T22:04:01.099Z,9.80
2019-02-28T22:06:31.287Z,9.80
2019-02-28T22:09:01.552Z,9.70
2019-02-28T22:11:33.462Z,9.60
2019-02-28T22:14:03.643Z,9.60
2019-02-28T22:16:33.876Z,9.50
2019-02-28T22:19:04.062Z,9.50
2019-02-28T22:21:34.280Z,9.50
2019-02-28T22:24:05.709Z,9.50
2019-02-28T22:26:35.924Z,9.40
2019-02-28T22:29:06.136Z,9.40
2019-02-28T22:31:54.116Z,9.40
2019-02-28T22:34:43.356Z,9.40
2019-02-28T22:37:13.564Z,9.40
2019-02-28T22:39:43.764Z,9.40
2019-02-28T22:42:21.724Z,9.40
2019-02-28T22:44:45.959Z,9.30
2019-02-28T22:47:16.176Z,9.40
2019-02-28T22:49:46.416Z,9.30
2019-02-28T22:52:17.048Z,9.40
2019-02-28T22:54:47.644Z,9.40
2019-02-28T22:57:17.857Z,9.40
2019-02-28T22:59:48.052Z,9.30
2019-02-28T23:02:19.345Z,9.30
2019-02-28T23:04:49.616Z,9.30
2019-02-28T23:07:20.861Z,9.40
2019-02-28T23:09:51.080Z,9.30
2019-02-28T23:12:21.348Z,9.30
2019-02-28T23:14:51.529Z,9.30
2019-02-28T23:17:21.792Z,9.30
2019-02-28T23:19:52.312Z,9.30
2019-02-28T23:22:22.517Z,9.30
2019-02-28T23:24:53.061Z,9.30
2019-02-28T23:27:23.218Z,9.20
2019-02-28T23:30:27.725Z,9.20
2019-02-28T23:33:05.112Z,9.20
2019-02-28T23:35:38.075Z,9.30
2019-02-28T23:38:08.285Z,9.30
2019-02-28T23:40:38.590Z,9.20
2019-02-28T23:43:09.093Z,9.20
2019-02-28T23:45:39.282Z,9.30
2019-02-28T23:48:09.478Z,9.30
2019-02-28T23:50:39.680Z,9.30
2019-02-28T23:53:09.910Z,9.30
2019-02-28T23:55:40.545Z,9.30
2019-02-28T23:58:10.849Z,9.30
